createdAt,value
2018-04-08T00:01:15.353Z,27.57
2018-04-08T00:03:42.194Z,27.37
2018-04-08T00:06:08.958Z,27.83
2018-04-08T00:08:35.726Z,27.27
2018-04-08T00:11:02.513Z,27.57
2018-04-08T00:13:29.285Z,27.53
2018-04-08T00:15:56.106Z,27.40
2018-04-08T00:18:22.889Z,26.90
2018-04-08T00:20:50.496Z,27.57
2018-04-08T00:23:17.349Z,27.77
2018-04-08T00:25:44.137Z,31.13
2018-04-08T00:28:10.976Z,30.67
2018-04-08T00:30:38.426Z,30.27
2018-04-08T00:33:05.435Z,29.80
2018-04-08T00:35:32.516Z,27.17
2018-04-08T00:37:59.954Z,29.03
2018-04-08T00:40:26.726Z,29.53
2018-04-08T00:42:53.531Z,29.53
2018-04-08T00:45:20.362Z,29.10
2018-04-08T00:47:47.480Z,29.27
2018-04-08T00:50:15.073Z,27.57
2018-04-08T00:52:41.903Z,26.23
2018-04-08T00:55:08.712Z,26.57
2018-04-08T00:57:35.531Z,27.07
2018-04-08T01:00:02.323Z,27.73
2018-04-08T01:02:29.176Z,29.83
2018-04-08T01:04:56.678Z,28.87
2018-04-08T01:07:23.454Z,30.30
2018-04-08T01:09:50.243Z,31.93
2018-04-08T01:12:17.210Z,29.03
2018-04-08T01:14:44.058Z,29.47
2018-04-08T01:17:11.293Z,29.87
2018-04-08T01:19:38.184Z,29.90
2018-04-08T01:22:05.919Z,30.20
2018-04-08T01:24:33.009Z,26.70
2018-04-08T01:26:59.806Z,29.03
2018-04-08T01:29:26.610Z,28.93
2018-04-08T01:31:53.418Z,28.13
2018-04-08T01:34:20.221Z,28.07
2018-04-08T01:36:47.000Z,28.20
2018-04-08T01:39:13.819Z,29.80
2018-04-08T01:41:40.649Z,28.23
2018-04-08T01:44:07.428Z,29.53
2018-04-08T01:46:34.197Z,28.70
2018-04-08T01:49:01.452Z,30.13
2018-04-08T01:51:28.253Z,27.80
2018-04-08T01:53:55.574Z,28.83
2018-04-08T01:56:22.347Z,26.87
2018-04-08T01:58:49.251Z,30.73
2018-04-08T02:01:16.007Z,29.20
2018-04-08T02:03:43.495Z,29.07
2018-04-08T02:06:10.455Z,28.90
2018-04-08T02:08:37.238Z,28.43
2018-04-08T02:11:03.992Z,28.17
2018-04-08T02:13:31.252Z,27.57
2018-04-08T02:15:58.192Z,27.03
2018-04-08T02:18:24.957Z,26.97
2018-04-08T02:20:51.721Z,26.07
2018-04-08T02:23:18.483Z,25.63
2018-04-08T02:25:45.250Z,26.27
2018-04-08T02:28:12.082Z,26.87
2018-04-08T02:30:38.921Z,25.70
2018-04-08T02:33:05.731Z,27.33
2018-04-08T02:35:32.826Z,26.30
2018-04-08T02:38:00.431Z,25.97
2018-04-08T02:40:27.216Z,26.63
2018-04-08T02:42:53.986Z,28.37
2018-04-08T02:45:20.730Z,26.93
2018-04-08T02:47:47.567Z,26.93
2018-04-08T02:50:14.356Z,27.10
2018-04-08T02:52:41.158Z,27.53
2018-04-08T02:55:07.950Z,26.13
2018-04-08T02:57:34.726Z,27.10
2018-04-08T03:00:01.859Z,27.30
2018-04-08T03:02:28.729Z,26.17
2018-04-08T03:04:55.484Z,25.73
2018-04-08T03:07:22.315Z,24.90
2018-04-08T03:09:49.098Z,24.70
2018-04-08T03:12:16.282Z,24.80
2018-04-08T03:14:43.092Z,24.93
2018-04-08T03:17:09.976Z,24.63
2018-04-08T03:19:36.778Z,22.50
2018-04-08T03:22:03.797Z,22.33
2018-04-08T03:24:30.576Z,22.57
2018-04-08T03:26:58.502Z,24.33
2018-04-08T03:29:25.475Z,24.53
2018-04-08T03:31:52.278Z,24.83
2018-04-08T03:34:19.598Z,24.87
2018-04-08T03:36:46.422Z,25.53
2018-04-08T03:39:13.209Z,25.33
2018-04-08T03:41:39.953Z,24.13
2018-04-08T03:44:06.698Z,24.73
2018-04-08T03:46:33.527Z,24.90
2018-04-08T03:49:00.293Z,25.37
2018-04-08T03:51:27.642Z,22.97
2018-04-08T03:53:55.274Z,23.97
2018-04-08T03:56:22.042Z,23.67
2018-04-08T03:58:48.838Z,23.70
2018-04-08T04:01:15.638Z,24.63
2018-04-08T04:03:42.729Z,24.43
2018-04-08T04:06:09.507Z,23.97
2018-04-08T04:08:36.279Z,24.00
2018-04-08T04:11:03.094Z,23.70
2018-04-08T04:13:29.909Z,21.97
2018-04-08T04:15:57.509Z,24.27
2018-04-08T04:18:30.328Z,24.07
2018-04-08T04:21:03.079Z,23.53
2018-04-08T04:23:47.708Z,24.43
2018-04-08T04:26:20.162Z,21.23
2018-04-08T04:28:47.010Z,21.23
2018-04-08T04:31:13.809Z,20.30
2018-04-08T04:33:40.590Z,20.73
2018-04-08T04:36:07.376Z,21.47
2018-04-08T04:38:34.939Z,20.83
2018-04-08T04:41:01.772Z,21.13
2018-04-08T04:43:28.600Z,23.10
2018-04-08T04:45:55.447Z,21.80
2018-04-08T04:48:22.253Z,21.17
2018-04-08T04:50:49.005Z,23.37
2018-04-08T04:53:15.789Z,21.70
2018-04-08T04:55:42.601Z,20.37
2018-04-08T04:58:09.434Z,21.03
2018-04-08T05:00:36.230Z,21.20
2018-04-08T05:03:03.081Z,21.77
2018-04-08T05:05:29.899Z,21.17
2018-04-08T05:07:56.696Z,19.83
2018-04-08T05:10:23.484Z,18.90
2018-04-08T05:12:50.276Z,19.20
2018-04-08T05:15:17.084Z,18.93
2018-04-08T05:17:43.836Z,17.83
2018-04-08T05:20:11.532Z,16.73
2018-04-08T05:22:38.330Z,16.50
2018-04-08T05:25:05.142Z,15.50
2018-04-08T05:27:32.358Z,16.20
2018-04-08T05:29:59.246Z,14.43
2018-04-08T05:32:26.035Z,16.47
2018-04-08T05:34:53.296Z,15.60
2018-04-08T05:37:20.095Z,14.27
2018-04-08T05:39:47.290Z,14.00
2018-04-08T05:42:14.096Z,13.97
2018-04-08T05:44:41.053Z,13.63
2018-04-08T05:47:08.055Z,11.27
2018-04-08T05:49:34.858Z,13.10
2018-04-08T05:52:02.202Z,12.10
2018-04-08T05:54:29.395Z,12.67
2018-04-08T05:56:56.183Z,11.50
2018-04-08T05:59:23.234Z,11.90
2018-04-08T06:01:50.072Z,11.00
2018-04-08T06:04:16.837Z,10.87
2018-04-08T06:06:43.633Z,11.07
2018-04-08T06:09:11.097Z,11.23
2018-04-08T06:11:38.052Z,10.70
2018-04-08T06:14:04.853Z,10.43
2018-04-08T06:16:31.630Z,11.13
2018-04-08T06:18:58.387Z,11.23
2018-04-08T06:21:25.155Z,10.97
2018-04-08T06:23:51.953Z,12.17
2018-04-08T06:26:18.765Z,12.27
2018-04-08T06:28:45.559Z,12.37
2018-04-08T06:31:12.993Z,11.37
2018-04-08T06:33:39.772Z,11.40
2018-04-08T06:36:06.654Z,11.27
2018-04-08T06:38:33.533Z,10.80
2018-04-08T06:41:00.408Z,10.20
2018-04-08T06:43:27.161Z,10.73
2018-04-08T06:45:54.977Z,9.80
2018-04-08T06:48:22.039Z,9.87
2018-04-08T06:50:49.230Z,10.70
2018-04-08T06:53:17.804Z,9.80
2018-04-08T06:55:44.587Z,9.83
2018-04-08T06:58:11.682Z,8.50
2018-04-08T07:00:38.548Z,9.10
2018-04-08T07:03:05.920Z,9.77
2018-04-08T07:05:33.362Z,9.00
2018-04-08T07:08:00.902Z,9.00
2018-04-08T07:10:27.710Z,9.80
2018-04-08T07:12:55.206Z,9.47
2018-04-08T07:15:22.126Z,9.53
2018-04-08T07:17:48.913Z,9.37
2018-04-08T07:20:16.187Z,9.47
2018-04-08T07:22:43.403Z,11.00
2018-04-08T07:25:10.215Z,10.53
2018-04-08T07:27:37.130Z,10.33
2018-04-08T07:30:03.997Z,10.53
2018-04-08T07:32:31.993Z,11.37
2018-04-08T07:34:58.814Z,10.33
2018-04-08T07:37:26.458Z,10.70
2018-04-08T07:39:54.011Z,11.40
2018-04-08T07:42:20.841Z,12.33
2018-04-08T07:44:48.351Z,11.70
2018-04-08T07:47:15.193Z,11.10
2018-04-08T07:49:42.122Z,12.03
2018-04-08T07:52:09.043Z,11.57
2018-04-08T07:54:35.888Z,11.57
2018-04-08T07:57:03.547Z,12.23
2018-04-08T07:59:30.380Z,12.73
2018-04-08T08:01:58.455Z,11.60
2018-04-08T08:04:25.336Z,11.03
2018-04-08T08:06:52.142Z,11.00
2018-04-08T08:09:19.626Z,10.97
2018-04-08T08:11:46.477Z,9.73
2018-04-08T08:14:13.326Z,10.50
2018-04-08T08:16:41.003Z,10.33
2018-04-08T08:19:08.667Z,9.93
2018-04-08T08:21:35.610Z,10.40
2018-04-08T08:24:04.053Z,10.73
2018-04-08T08:26:30.858Z,10.37
2018-04-08T08:28:57.963Z,9.80
2018-04-08T08:31:29.813Z,10.97
2018-04-08T08:33:57.364Z,9.90
2018-04-08T08:36:24.514Z,10.60
2018-04-08T08:38:56.068Z,10.50
2018-04-08T08:41:22.841Z,9.83
2018-04-08T08:43:49.601Z,9.07
2018-04-08T08:46:17.250Z,9.47
2018-04-08T08:48:44.141Z,9.60
2018-04-08T08:51:11.127Z,9.57
2018-04-08T08:53:38.344Z,8.73
2018-04-08T08:56:05.960Z,9.30
2018-04-08T08:58:33.587Z,8.90
2018-04-08T09:01:00.344Z,8.80
2018-04-08T09:03:27.218Z,8.60
2018-04-08T09:05:54.011Z,8.60
2018-04-08T09:08:21.453Z,9.37
2018-04-08T09:10:48.250Z,9.20
2018-04-08T09:13:16.542Z,8.00
2018-04-08T09:15:43.372Z,8.57
2018-04-08T09:18:10.418Z,9.07
2018-04-08T09:20:38.362Z,9.47
2018-04-08T09:23:18.874Z,10.37
2018-04-08T09:25:51.433Z,10.10
2018-04-08T09:28:18.690Z,9.83
2018-04-08T09:30:45.526Z,9.80
2018-04-08T09:33:12.336Z,10.37
2018-04-08T09:35:40.105Z,9.80
2018-04-08T09:38:07.124Z,10.03
2018-04-08T09:40:33.872Z,9.97
2018-04-08T09:43:01.508Z,10.33
2018-04-08T09:45:28.322Z,9.37
2018-04-08T09:47:55.828Z,10.33
2018-04-08T09:50:23.446Z,9.83
2018-04-08T09:52:50.591Z,9.20
2018-04-08T09:55:17.433Z,9.30
2018-04-08T09:57:47.247Z,10.10
2018-04-08T10:00:19.932Z,10.30
2018-04-08T10:02:52.532Z,11.13
2018-04-08T10:05:19.346Z,10.57
2018-04-08T10:07:46.184Z,10.30
2018-04-08T10:10:13.013Z,24.73
2018-04-08T10:12:39.894Z,12.50
2018-04-08T10:15:07.623Z,19.83
2018-04-08T10:17:35.643Z,16.47
2018-04-08T10:20:02.960Z,11.23
2018-04-08T10:22:30.781Z,14.63
2018-04-08T10:24:57.661Z,11.93
2018-04-08T10:27:24.434Z,12.80
2018-04-08T10:29:51.278Z,11.83
2018-04-08T10:32:18.435Z,11.63
2018-04-08T10:34:46.450Z,13.47
2018-04-08T10:37:13.971Z,12.73
2018-04-08T10:39:42.609Z,9.93
2018-04-08T10:42:10.568Z,14.03
2018-04-08T10:44:37.424Z,15.90
2018-04-08T10:47:04.305Z,13.23
2018-04-08T10:49:31.148Z,8.80
2018-04-08T10:51:58.060Z,9.10
2018-04-08T10:54:24.856Z,9.37
2018-04-08T10:56:52.376Z,10.07
2018-04-08T10:59:19.185Z,9.27
2018-04-08T11:01:46.914Z,10.60
2018-04-08T11:04:13.732Z,9.60
2018-04-08T11:06:50.444Z,9.73
2018-04-08T11:09:17.561Z,8.67
2018-04-08T11:14:24.722Z,8.80
2018-04-08T11:16:53.176Z,8.43
2018-04-08T11:19:21.009Z,9.07
2018-04-08T11:21:48.574Z,9.07
2018-04-08T11:24:15.478Z,9.37
2018-04-08T11:26:43.020Z,9.60
2018-04-08T11:29:10.002Z,8.60
2018-04-08T11:31:36.911Z,8.30
2018-04-08T11:34:04.582Z,8.63
2018-04-08T11:36:31.435Z,7.37
2018-04-08T11:38:59.026Z,8.00
2018-04-08T11:41:25.826Z,7.30
2018-04-08T11:43:52.584Z,6.50
2018-04-08T11:46:20.378Z,7.00
2018-04-08T11:48:47.183Z,6.90
2018-04-08T11:51:13.965Z,7.00
2018-04-08T11:53:40.951Z,6.40
2018-04-08T11:56:08.556Z,5.93
2018-04-08T11:58:35.397Z,6.80
2018-04-08T12:01:02.151Z,6.03
2018-04-08T12:03:29.124Z,5.60
2018-04-08T12:05:56.342Z,7.20
2018-04-08T12:08:24.169Z,5.90
2018-04-08T12:10:50.959Z,6.33
2018-04-08T12:13:17.825Z,6.10
2018-04-08T12:15:44.769Z,6.10
2018-04-08T12:18:11.723Z,5.97
2018-04-08T12:20:39.283Z,5.70
2018-04-08T12:23:06.090Z,6.07
2018-04-08T12:25:32.950Z,5.37
2018-04-08T12:27:59.891Z,5.83
2018-04-08T12:30:28.715Z,5.60
2018-04-08T12:32:56.220Z,5.73
2018-04-08T12:35:22.973Z,5.67
2018-04-08T12:37:51.160Z,6.20
2018-04-08T12:40:18.430Z,6.20
2018-04-08T12:42:45.253Z,5.93
2018-04-08T12:45:12.039Z,5.40
2018-04-08T12:47:38.876Z,5.97
2018-04-08T12:50:08.491Z,7.20
2018-04-08T12:52:35.252Z,6.60
2018-04-08T12:55:04.767Z,5.83
2018-04-08T12:57:31.566Z,6.17
2018-04-08T12:59:58.334Z,6.60
2018-04-08T13:02:25.167Z,6.73
2018-04-08T13:04:52.226Z,6.80
2018-04-08T13:07:19.011Z,6.63
2018-04-08T13:09:46.913Z,6.57
2018-04-08T13:12:14.654Z,6.73
2018-04-08T13:14:41.449Z,7.07
2018-04-08T13:17:08.539Z,7.57
2018-04-08T13:19:35.451Z,7.50
2018-04-08T13:22:02.259Z,6.93
2018-04-08T13:24:29.048Z,7.23
2018-04-08T13:26:56.563Z,6.83
2018-04-08T13:29:23.736Z,8.00
2018-04-08T13:31:50.656Z,8.00
2018-04-08T13:34:17.462Z,7.93
2018-04-08T13:36:44.689Z,7.63
2018-04-08T13:39:11.622Z,7.80
2018-04-08T13:41:38.470Z,7.13
2018-04-08T13:44:05.258Z,7.30
2018-04-08T13:46:32.991Z,7.50
2018-04-08T13:49:01.314Z,7.30
2018-04-08T13:51:28.200Z,8.30
2018-04-08T13:54:05.014Z,8.90
2018-04-08T13:56:32.298Z,7.13
2018-04-08T13:58:59.838Z,8.17
2018-04-08T14:01:26.691Z,8.30
2018-04-08T14:03:53.496Z,7.77
2018-04-08T14:06:20.314Z,7.27
2018-04-08T14:08:47.234Z,7.57
2018-04-08T14:11:14.035Z,7.73
2018-04-08T14:13:41.462Z,7.47
2018-04-08T14:16:08.290Z,8.37
2018-04-08T14:18:35.077Z,7.90
2018-04-08T14:21:01.921Z,8.23
2018-04-08T14:23:28.705Z,7.90
2018-04-08T14:25:56.233Z,7.63
2018-04-08T14:28:23.696Z,7.33
2018-04-08T14:30:50.826Z,7.00
2018-04-08T14:33:28.238Z,7.40
2018-04-08T14:35:55.800Z,6.57
2018-04-08T14:38:22.607Z,6.57
2018-04-08T14:40:49.398Z,6.80
2018-04-08T14:43:16.254Z,6.43
2018-04-08T14:45:43.586Z,7.53
2018-04-08T14:48:11.676Z,7.00
2018-04-08T14:50:39.522Z,7.20
2018-04-08T14:53:06.689Z,6.53
2018-04-08T14:55:33.432Z,6.77
2018-04-08T14:58:00.922Z,6.90
2018-04-08T15:00:27.731Z,7.27
2018-04-08T15:02:54.527Z,7.10
2018-04-08T15:05:22.079Z,6.87
2018-04-08T15:07:48.901Z,6.57
2018-04-08T15:10:15.725Z,6.47
2018-04-08T15:12:43.674Z,6.63
2018-04-08T15:31:25.626Z,5.93
2018-04-08T15:33:52.439Z,5.57
2018-04-08T15:36:19.755Z,6.03
2018-04-08T15:38:48.283Z,5.50
2018-04-08T15:41:15.340Z,6.87
2018-04-08T15:43:42.150Z,6.43
2018-04-08T15:46:09.858Z,5.97
2018-04-08T15:48:37.174Z,5.63
2018-04-08T15:51:03.991Z,5.93
2018-04-08T15:53:31.127Z,5.57
2018-04-08T15:55:57.905Z,6.00
2018-04-08T15:58:24.757Z,6.00
2018-04-08T16:00:51.819Z,5.57
2018-04-08T16:03:18.613Z,6.20
2018-04-08T16:05:45.887Z,6.40
2018-04-08T16:08:12.827Z,6.70
2018-04-08T16:10:45.763Z,6.87
2018-04-08T16:13:12.622Z,7.20
2018-04-08T16:15:39.422Z,6.40
2018-04-08T16:18:06.186Z,6.67
2018-04-08T16:20:33.035Z,6.60
2018-04-08T16:22:59.793Z,6.77
2018-04-08T16:25:26.647Z,6.27
2018-04-08T16:27:54.158Z,7.47
2018-04-08T16:30:20.987Z,7.27
2018-04-08T16:32:47.811Z,7.23
2018-04-08T16:35:14.604Z,7.03
2018-04-08T16:37:41.814Z,6.70
2018-04-08T16:40:08.679Z,6.47
2018-04-08T16:42:35.582Z,7.23
2018-04-08T16:45:02.869Z,7.07
2018-04-08T16:47:29.643Z,6.80
2018-04-08T16:49:56.472Z,6.83
2018-04-08T16:52:24.814Z,7.27
2018-04-08T16:54:52.297Z,6.63
2018-04-08T16:57:19.076Z,7.23
2018-04-08T16:59:45.876Z,6.40
2018-04-08T17:02:12.691Z,6.33
2018-04-08T17:08:10.576Z,6.77
2018-04-08T17:10:37.409Z,6.40
2018-04-08T17:13:04.216Z,6.73
2018-04-08T17:15:31.071Z,7.20
2018-04-08T17:17:57.931Z,7.03
2018-04-08T17:20:24.776Z,7.53
2018-04-08T17:22:51.626Z,6.60
2018-04-08T17:25:18.580Z,7.10
2018-04-08T17:27:45.733Z,7.27
2018-04-08T17:30:13.272Z,7.10
2018-04-08T17:32:40.320Z,7.27
2018-04-08T17:35:07.148Z,7.10
2018-04-08T17:37:34.067Z,6.90
2018-04-08T17:40:01.536Z,7.27
2018-04-08T17:42:29.026Z,6.67
2018-04-08T17:44:55.867Z,8.90
2018-04-08T17:47:23.698Z,8.00
2018-04-08T17:49:50.472Z,6.93
2018-04-08T17:52:18.111Z,7.43
2018-04-08T17:54:46.760Z,7.37
2018-04-08T17:57:13.538Z,7.07
2018-04-08T17:59:41.167Z,7.13
2018-04-08T18:02:08.086Z,7.90
2018-04-08T18:04:34.880Z,8.17
2018-04-08T18:07:01.714Z,10.03
2018-04-08T18:09:28.466Z,10.10
2018-04-08T18:11:55.273Z,11.03
2018-04-08T18:17:12.262Z,12.10
2018-04-08T18:19:39.031Z,11.30
2018-04-08T18:22:05.794Z,12.23
2018-04-08T18:24:32.592Z,24.23
2018-04-08T18:26:59.370Z,17.70
2018-04-08T18:29:26.203Z,16.03
2018-04-08T18:31:53.092Z,13.20
2018-04-08T18:34:20.221Z,10.57
2018-04-08T18:36:55.561Z,11.37
2018-04-08T18:52:22.320Z,13.07
2018-04-08T18:54:50.520Z,11.73
2018-04-08T18:57:17.294Z,10.00
2018-04-08T18:59:44.667Z,9.73
2018-04-08T19:02:11.449Z,10.37
2018-04-08T19:04:38.276Z,10.37
2018-04-08T19:07:05.840Z,10.20
2018-04-08T19:09:34.076Z,10.10
2018-04-08T19:12:00.911Z,10.50
2018-04-08T19:14:42.674Z,10.53
2018-04-08T19:17:09.531Z,9.70
2018-04-08T19:19:37.059Z,9.60
2018-04-08T19:22:03.852Z,11.37
2018-04-08T19:27:31.134Z,11.97
2018-04-08T19:29:58.502Z,11.47
2018-04-08T19:32:26.050Z,11.37
2018-04-08T19:34:54.912Z,10.57
2018-04-08T19:37:28.878Z,10.83
2018-04-08T19:39:57.570Z,9.93
2018-04-08T19:42:24.546Z,11.10
2018-04-08T19:44:52.485Z,12.17
2018-04-08T19:47:22.526Z,12.17
2018-04-08T19:49:53.088Z,13.53
2018-04-08T19:52:20.012Z,13.30
2018-04-08T19:54:47.310Z,15.40
2018-04-08T19:57:14.092Z,13.47
2018-04-08T19:59:41.550Z,12.93
2018-04-08T20:02:10.142Z,14.17
2018-04-08T20:04:37.982Z,13.27
2018-04-08T20:07:05.690Z,15.00
2018-04-08T20:09:33.245Z,15.20
2018-04-08T20:12:00.549Z,14.47
2018-04-08T20:14:28.162Z,16.43
2018-04-08T20:16:55.728Z,15.83
2018-04-08T20:19:22.592Z,16.03
2018-04-08T20:21:49.890Z,15.33
2018-04-08T20:24:17.183Z,15.23
2018-04-08T20:26:57.340Z,16.50
2018-04-08T20:29:24.417Z,15.63
2018-04-08T20:31:51.453Z,14.90
2018-04-08T20:34:18.777Z,16.97
2018-04-08T20:36:45.599Z,17.40
2018-04-08T20:39:12.869Z,17.07
2018-04-08T20:41:42.205Z,16.00
2018-04-08T20:44:10.196Z,16.53
2018-04-08T20:46:40.045Z,17.13
2018-04-08T20:49:07.560Z,16.67
2018-04-08T20:51:39.121Z,16.63
2018-04-08T20:54:07.624Z,16.70
2018-04-08T20:56:42.781Z,15.93
2018-04-08T20:59:18.851Z,14.10
2018-04-08T21:01:50.163Z,14.20
2018-04-08T21:04:21.727Z,14.60
2018-04-08T21:07:03.938Z,15.60
2018-04-08T21:09:47.894Z,14.50
2018-04-08T21:12:15.691Z,14.63
2018-04-08T21:14:43.125Z,14.73
2018-04-08T21:17:09.889Z,14.87
2018-04-08T21:19:36.698Z,14.70
2018-04-08T21:22:03.495Z,14.63
2018-04-08T21:24:30.425Z,14.20
2018-04-08T21:26:57.250Z,14.73
2018-04-08T21:29:24.006Z,14.60
2018-04-08T21:31:51.590Z,15.43
2018-04-08T21:34:18.392Z,15.73
2018-04-08T21:36:45.472Z,15.27
2018-04-08T21:39:12.941Z,15.00
2018-04-08T21:41:40.114Z,15.83
2018-04-08T21:44:07.230Z,17.07
2018-04-08T21:46:34.034Z,18.43
2018-04-08T21:49:01.784Z,19.07
2018-04-08T21:51:28.677Z,18.33
2018-04-08T21:53:56.295Z,19.00
2018-04-08T21:56:23.202Z,16.37
2018-04-08T22:15:04.998Z,14.93
2018-04-08T22:17:31.797Z,16.63
2018-04-08T22:19:58.680Z,15.53
2018-04-08T22:22:26.144Z,15.83
2018-04-08T22:24:52.882Z,17.27
2018-04-08T22:27:19.877Z,14.00
2018-04-08T22:29:46.638Z,13.67
2018-04-08T22:32:13.435Z,13.43
2018-04-08T22:34:40.962Z,13.83
2018-04-08T22:37:07.780Z,14.53
2018-04-08T22:39:35.466Z,14.00
2018-04-08T22:42:02.310Z,12.77
2018-04-08T22:44:29.175Z,14.73
2018-04-08T22:46:56.094Z,14.27
2018-04-08T22:49:22.946Z,14.10
2018-04-08T22:51:49.817Z,14.17
2018-04-08T22:54:17.191Z,14.60
2018-04-08T22:56:44.400Z,14.33
2018-04-08T22:59:11.158Z,15.20
2018-04-08T23:01:38.618Z,15.07
2018-04-08T23:04:05.792Z,14.83
2018-04-08T23:06:32.744Z,15.87
2018-04-08T23:08:59.674Z,15.37
2018-04-08T23:11:26.438Z,14.90
2018-04-08T23:13:53.212Z,15.23
2018-04-08T23:16:20.051Z,14.33
2018-04-08T23:18:46.865Z,14.43
2018-04-08T23:21:13.742Z,14.87
2018-04-08T23:23:40.948Z,14.07
2018-04-08T23:26:08.739Z,14.93
2018-04-08T23:28:35.655Z,13.63
2018-04-08T23:31:03.558Z,14.77
2018-04-08T23:33:30.373Z,14.43
2018-04-08T23:35:57.194Z,16.17
2018-04-08T23:38:24.448Z,14.20
2018-04-08T23:40:52.062Z,14.90
2018-04-08T23:43:19.590Z,15.17
2018-04-08T23:45:46.432Z,15.97
2018-04-08T23:48:13.231Z,16.40
2018-04-08T23:50:40.357Z,17.07
2018-04-08T23:53:08.175Z,16.10
